Time;durP1;ratioP1;P1;durP2;ratioP2;P2;SDS_P1;SDS_P2;PMS_P1;PMS_P2;Temp;Humidity;BMP_temperature;BMP_pressure;BME280_temperature;BME280_humidity;BME280_pressure;Samples;Min_cycle;Max_cycle;Signal;HPM_P1;HPM_P2
2023/03/22 00:01:59;;;;;;;11.20;2.40;;;;;;;;;;5073076;28;20045;-58
2023/03/22 00:04:26;;;;;;;11.85;2.38;;;;;;;;;;5070159;28;20044;-58
2023/03/22 00:06:52;;;;;;;5.43;2.05;;;;;;;;;;5073164;28;20044;-58
2023/03/22 00:09:18;;;;;;;4.78;2.28;;;;;;;;;;5071769;28;20044;-58
2023/03/22 00:11:45;;;;;;;4.95;2.08;;;;;;;;;;5072476;28;20134;-58
2023/03/22 00:14:11;;;;;;;10.55;2.17;;;;;;;;;;5071910;28;20124;-57
2023/03/22 00:16:37;;;;;;;9.75;3.58;;;;;;;;;;5072116;28;20049;-58
2023/03/22 00:19:03;;;;;;;16.25;2.97;;;;;;;;;;5073708;28;20040;-58
2023/03/22 00:21:29;;;;;;;8.07;2.38;;;;;;;;;;5072195;28;20047;-57
2023/03/22 00:23:55;;;;;;;9.60;3.28;;;;;;;;;;5073012;28;20071;-58
2023/03/22 00:26:22;;;;;;;8.10;2.30;;;;;;;;;;5069608;28;20040;-58
2023/03/22 00:28:50;;;;;;;8.05;3.03;;;;;;;;;;5072900;28;20048;-58
2023/03/22 00:31:16;;;;;;;6.03;2.53;;;;;;;;;;5073141;28;20048;-58
2023/03/22 00:33:42;;;;;;;9.45;2.13;;;;;;;;;;5053506;28;20709;-58
2023/03/22 00:36:10;;;;;;;5.50;1.75;;;;;;;;;;5073012;28;20119;-58
2023/03/22 00:38:36;;;;;;;8.52;2.17;;;;;;;;;;5071746;28;20033;-58
2023/03/22 00:41:06;;;;;;;10.48;2.35;;;;;;;;;;5074215;28;20241;-58
2023/03/22 00:43:32;;;;;;;10.93;3.40;;;;;;;;;;5070917;28;20049;-58
2023/03/22 00:45:58;;;;;;;16.45;3.40;;;;;;;;;;5071938;28;20223;-58
2023/03/22 00:48:24;;;;;;;6.65;2.13;;;;;;;;;;5067842;28;20063;-58
2023/03/22 00:50:50;;;;;;;7.97;2.40;;;;;;;;;;5072767;28;20160;-58
2023/03/22 00:53:16;;;;;;;6.10;2.00;;;;;;;;;;5069130;28;20733;-58
2023/03/22 00:55:42;;;;;;;5.75;2.17;;;;;;;;;;5070482;28;20207;-59
2023/03/22 00:58:08;;;;;;;6.20;2.28;;;;;;;;;;5072235;28;20175;-58
2023/03/22 01:00:34;;;;;;;4.68;1.70;;;;;;;;;;5072717;28;20048;-58
2023/03/22 01:03:03;;;;;;;8.85;2.00;;;;;;;;;;5073381;28;20044;-58
2023/03/22 01:05:32;;;;;;;10.40;2.60;;;;;;;;;;5072744;28;20532;-58
2023/03/22 01:08:05;;;;;;;13.55;3.10;;;;;;;;;;5073357;28;20047;-58
2023/03/22 01:10:31;;;;;;;8.35;2.78;;;;;;;;;;5071838;28;20515;-58
2023/03/22 01:12:57;;;;;;;6.53;3.13;;;;;;;;;;5053094;28;20509;-59
2023/03/22 01:15:23;;;;;;;12.82;4.03;;;;;;;;;;5071648;28;20037;-58
2023/03/22 01:17:50;;;;;;;10.38;3.50;;;;;;;;;;5046324;28;20094;-58
2023/03/22 01:20:16;;;;;;;3.88;2.17;;;;;;;;;;5073200;28;20147;-58
2023/03/22 01:22:42;;;;;;;6.53;2.08;;;;;;;;;;5071913;28;20044;-58
2023/03/22 01:25:08;;;;;;;5.53;2.38;;;;;;;;;;5073567;28;20038;-58
2023/03/22 01:27:34;;;;;;;5.93;2.72;;;;;;;;;;5072281;28;20029;-58
2023/03/22 01:30:00;;;;;;;6.07;2.95;;;;;;;;;;5072352;28;20464;-58
2023/03/22 01:32:26;;;;;;;8.95;2.55;;;;;;;;;;5071260;28;20037;-58
2023/03/22 01:34:53;;;;;;;8.20;2.47;;;;;;;;;;5073105;28;20045;-57
2023/03/22 01:37:20;;;;;;;8.75;3.50;;;;;;;;;;5047340;28;20568;-58
2023/03/22 01:39:47;;;;;;;14.00;2.78;;;;;;;;;;5072659;28;20044;-57
2023/03/22 01:42:14;;;;;;;5.47;2.75;;;;;;;;;;5070947;28;20123;-56
2023/03/22 01:44:43;;;;;;;9.52;2.25;;;;;;;;;;5072462;28;20033;-57
2023/03/22 01:47:10;;;;;;;6.13;2.15;;;;;;;;;;5070681;28;20036;-57
2023/03/22 01:49:37;;;;;;;16.08;2.58;;;;;;;;;;5072011;28;20113;-57
2023/03/22 01:52:09;;;;;;;11.15;3.15;;;;;;;;;;5070420;28;20077;-57
2023/03/22 01:54:41;;;;;;;10.63;2.33;;;;;;;;;;5070419;28;20123;-57
2023/03/22 01:57:08;;;;;;;7.55;2.53;;;;;;;;;;5073012;28;20126;-57
2023/03/22 01:59:34;;;;;;;8.60;2.42;;;;;;;;;;5069552;28;20357;-57
2023/03/22 02:02:01;;;;;;;8.40;3.53;;;;;;;;;;5062289;28;20594;-57
2023/03/22 02:04:32;;;;;;;10.90;2.83;;;;;;;;;;5069551;28;20053;-57
2023/03/22 02:07:00;;;;;;;11.23;2.92;;;;;;;;;;5071707;28;20044;-57
2023/03/22 02:09:28;;;;;;;17.67;4.18;;;;;;;;;;5071365;28;21649;-57
2023/03/22 02:12:11;;;;;;;7.53;2.55;;;;;;;;;;5070695;28;20049;-57
2023/03/22 02:14:49;;;;;;;6.63;2.88;;;;;;;;;;5070706;28;20037;-57
2023/03/22 02:17:38;;;;;;;12.43;3.10;;;;;;;;;;5070753;28;20060;-57
2023/03/22 02:20:14;;;;;;;7.55;3.20;;;;;;;;;;5012701;28;20040;-57
2023/03/22 02:22:56;;;;;;;7.70;2.42;;;;;;;;;;5072110;28;20059;-57
2023/03/22 02:25:22;;;;;;;6.10;3.05;;;;;;;;;;5070082;28;20535;-57
2023/03/22 02:27:58;;;;;;;10.85;3.53;;;;;;;;;;5073280;28;20084;-57
2023/03/22 02:30:41;;;;;;;9.35;2.38;;;;;;;;;;5074575;28;20602;-57
2023/03/22 02:33:22;;;;;;;8.20;2.45;;;;;;;;;;5073802;28;20601;-57
2023/03/22 02:35:52;;;;;;;12.00;3.15;;;;;;;;;;5075029;28;20049;-57
2023/03/22 02:38:21;;;;;;;7.72;2.88;;;;;;;;;;5075398;28;20800;-56
2023/03/22 02:40:47;;;;;;;12.75;2.60;;;;;;;;;;5074724;28;20522;-57
2023/03/22 02:43:13;;;;;;;9.55;2.65;;;;;;;;;;5075092;28;20045;-56
2023/03/22 02:45:45;;;;;;;10.45;3.20;;;;;;;;;;5073869;28;20516;-57
2023/03/22 02:48:22;;;;;;;10.43;3.28;;;;;;;;;;5073983;28;20194;-57
2023/03/22 02:50:56;;;;;;;7.68;1.80;;;;;;;;;;5074908;28;20048;-57
2023/03/22 02:53:32;;;;;;;8.55;2.47;;;;;;;;;;5055305;28;20483;-56
2023/03/22 02:55:59;;;;;;;9.90;3.22;;;;;;;;;;5073229;28;20132;-56
2023/03/22 02:58:37;;;;;;;7.55;2.63;;;;;;;;;;5074340;28;21138;-56
2023/03/22 03:01:06;;;;;;;4.60;2.28;;;;;;;;;;5057108;28;20044;-56
2023/03/22 03:03:36;;;;;;;9.80;3.25;;;;;;;;;;5054165;28;20045;-56
2023/03/22 03:06:07;;;;;;;10.20;2.22;;;;;;;;;;5074488;28;20037;-56
2023/03/22 03:08:34;;;;;;;12.63;3.08;;;;;;;;;;5075029;28;20490;-56
2023/03/22 03:11:00;;;;;;;7.57;2.25;;;;;;;;;;5074797;28;20048;-56
2023/03/22 03:13:26;;;;;;;7.20;1.65;;;;;;;;;;5071690;28;20061;-57
2023/03/22 03:15:56;;;;;;;6.70;1.90;;;;;;;;;;5075035;28;20036;-56
2023/03/22 03:18:22;;;;;;;9.00;1.88;;;;;;;;;;5073999;28;20077;-56
2023/03/22 03:20:48;;;;;;;11.82;3.55;;;;;;;;;;5072734;28;20626;-56
2023/03/22 03:23:19;;;;;;;8.43;3.42;;;;;;;;;;5073507;28;21228;-57
2023/03/22 03:25:57;;;;;;;9.23;2.35;;;;;;;;;;5074110;28;20106;-57
2023/03/22 03:28:37;;;;;;;6.47;3.30;;;;;;;;;;5073650;28;20043;-57
2023/03/22 03:31:07;;;;;;;15.90;3.65;;;;;;;;;;5072847;28;20066;-57
2023/03/22 03:33:35;;;;;;;11.07;2.90;;;;;;;;;;5071133;28;20071;-57
2023/03/22 03:36:09;;;;;;;10.18;2.55;;;;;;;;;;5072519;28;20528;-57
2023/03/22 03:38:37;;;;;;;9.10;2.58;;;;;;;;;;5073387;28;20513;-57
2023/03/22 03:41:04;;;;;;;9.07;2.97;;;;;;;;;;5072553;28;20041;-56
2023/03/22 03:43:31;;;;;;;8.77;2.50;;;;;;;;;;5073293;28;20526;-56
2023/03/22 03:45:57;;;;;;;8.77;2.33;;;;;;;;;;5073600;28;20044;-56
2023/03/22 03:48:29;;;;;;;9.80;2.80;;;;;;;;;;5072989;28;20691;-57
2023/03/22 03:50:56;;;;;;;8.90;2.38;;;;;;;;;;5073103;28;20096;-57
2023/03/22 03:53:22;;;;;;;5.65;2.20;;;;;;;;;;5073610;28;20732;-57
2023/03/22 03:55:48;;;;;;;8.65;3.17;;;;;;;;;;5054953;28;20097;-57
2023/03/22 03:58:17;;;;;;;6.68;2.08;;;;;;;;;;5074236;28;20554;-57
2023/03/22 04:00:45;;;;;;;10.43;2.80;;;;;;;;;;5073430;28;20123;-57
2023/03/22 04:03:11;;;;;;;6.43;2.28;;;;;;;;;;5072146;28;20051;-58
2023/03/22 04:05:37;;;;;;;7.93;2.58;;;;;;;;;;5073843;28;20040;-57
2023/03/22 04:08:04;;;;;;;12.95;3.03;;;;;;;;;;5073464;28;20102;-57
2023/03/22 04:10:30;;;;;;;7.47;2.17;;;;;;;;;;5073513;28;20044;-57
2023/03/22 04:12:56;;;;;;;13.30;2.85;;;;;;;;;;5073186;28;20052;-57
2023/03/22 04:15:23;;;;;;;4.68;2.92;;;;;;;;;;5073111;28;20035;-57
2023/03/22 04:17:49;;;;;;;11.30;3.25;;;;;;;;;;5072406;28;21034;-57
2023/03/22 04:20:16;;;;;;;8.93;2.38;;;;;;;;;;5073679;28;20040;-57
2023/03/22 04:22:42;;;;;;;9.75;2.17;;;;;;;;;;5071533;28;20143;-57
2023/03/22 04:25:10;;;;;;;6.00;1.90;;;;;;;;;;5073302;28;20271;-57
2023/03/22 04:27:37;;;;;;;15.00;2.72;;;;;;;;;;5071736;28;20052;-57
2023/03/22 04:30:04;;;;;;;5.75;1.73;;;;;;;;;;5071375;28;20055;-57
2023/03/22 04:32:30;;;;;;;9.30;2.40;;;;;;;;;;5067477;28;20118;-57
2023/03/22 04:34:58;;;;;;;11.40;2.95;;;;;;;;;;5055397;28;20047;-57
2023/03/22 04:37:25;;;;;;;15.73;3.35;;;;;;;;;;5072574;28;20036;-57
2023/03/22 04:39:52;;;;;;;3.50;2.05;;;;;;;;;;5072622;28;20099;-57
2023/03/22 04:42:18;;;;;;;8.52;2.40;;;;;;;;;;5072883;28;20060;-57
2023/03/22 04:44:44;;;;;;;5.82;2.47;;;;;;;;;;5074111;28;20729;-57
2023/03/22 04:47:10;;;;;;;5.63;2.35;;;;;;;;;;5072205;28;20526;-57
2023/03/22 04:49:36;;;;;;;5.13;2.35;;;;;;;;;;5073816;28;20088;-57
2023/03/22 04:52:03;;;;;;;9.70;1.73;;;;;;;;;;5072984;28;20889;-57
2023/03/22 04:54:29;;;;;;;8.23;3.80;;;;;;;;;;5072714;28;20537;-57
2023/03/22 04:56:55;;;;;;;20.25;3.30;;;;;;;;;;5073141;28;20144;-57
2023/03/22 04:59:21;;;;;;;11.52;3.75;;;;;;;;;;5072611;28;20048;-58
2023/03/22 05:01:47;;;;;;;10.10;4.32;;;;;;;;;;5071497;28;20083;-57
2023/03/22 05:04:14;;;;;;;8.95;2.88;;;;;;;;;;5073093;28;20044;-58
2023/03/22 05:06:40;;;;;;;4.90;2.13;;;;;;;;;;5072378;28;20079;-58
2023/03/22 05:09:06;;;;;;;11.13;2.40;;;;;;;;;;5072255;28;20048;-58
2023/03/22 05:11:32;;;;;;;11.50;2.47;;;;;;;;;;5071640;28;20080;-57
2023/03/22 05:13:59;;;;;;;6.57;2.25;;;;;;;;;;5072491;28;20056;-57
2023/03/22 05:16:25;;;;;;;9.15;3.60;;;;;;;;;;5070402;28;20044;-57
2023/03/22 05:18:53;;;;;;;5.65;2.38;;;;;;;;;;5072222;28;20053;-57
2023/03/22 05:21:27;;;;;;;6.18;2.20;;;;;;;;;;5068855;28;20083;-58
2023/03/22 05:23:53;;;;;;;7.15;2.60;;;;;;;;;;5061856;28;20442;-58
2023/03/22 05:26:23;;;;;;;6.13;2.85;;;;;;;;;;5067599;28;20092;-58
2023/03/22 05:28:49;;;;;;;7.45;2.78;;;;;;;;;;5070169;28;20675;-58
2023/03/22 05:31:15;;;;;;;10.05;2.85;;;;;;;;;;5070251;28;20044;-58
2023/03/22 05:33:42;;;;;;;12.23;3.67;;;;;;;;;;5072460;28;20179;-58
2023/03/22 05:36:10;;;;;;;13.85;4.03;;;;;;;;;;5072589;28;20585;-58
2023/03/22 05:38:37;;;;;;;8.30;2.42;;;;;;;;;;5071141;28;20127;-58
2023/03/22 05:41:03;;;;;;;6.55;3.55;;;;;;;;;;5071022;28;20044;-58
2023/03/22 05:43:29;;;;;;;14.52;4.20;;;;;;;;;;5071638;28;20075;-58
2023/03/22 05:45:55;;;;;;;8.07;3.65;;;;;;;;;;5072686;28;20057;-57
2023/03/22 05:48:21;;;;;;;11.25;2.95;;;;;;;;;;5048084;28;20048;-57
2023/03/22 05:50:47;;;;;;;12.98;3.33;;;;;;;;;;5045681;28;20056;-57
2023/03/22 05:53:14;;;;;;;8.45;3.22;;;;;;;;;;5072393;28;20041;-57
2023/03/22 05:55:40;;;;;;;10.60;3.13;;;;;;;;;;5071856;28;20525;-58
2023/03/22 05:58:07;;;;;;;7.18;2.83;;;;;;;;;;5065300;28;20075;-56
2023/03/22 06:00:34;;;;;;;4.70;2.55;;;;;;;;;;5069805;28;20444;-57
2023/03/22 06:03:02;;;;;;;5.80;2.90;;;;;;;;;;5072496;28;20044;-58
2023/03/22 06:05:31;;;;;;;7.80;3.13;;;;;;;;;;5075206;28;20048;-58
2023/03/22 06:07:58;;;;;;;11.05;3.47;;;;;;;;;;5075194;28;20259;-58
2023/03/22 06:10:25;;;;;;;18.25;3.33;;;;;;;;;;5056576;28;20236;-58
2023/03/22 06:12:52;;;;;;;10.52;2.47;;;;;;;;;;5074771;28;20141;-57
2023/03/22 06:15:21;;;;;;;9.05;2.53;;;;;;;;;;5075905;28;20033;-57
2023/03/22 06:17:47;;;;;;;6.45;2.75;;;;;;;;;;5074492;28;20043;-57
2023/03/22 06:20:14;;;;;;;7.22;3.42;;;;;;;;;;5076676;28;20044;-58
2023/03/22 06:22:40;;;;;;;6.50;2.97;;;;;;;;;;5075767;28;20036;-58
2023/03/22 06:25:07;;;;;;;9.30;3.55;;;;;;;;;;5075684;28;20040;-58
2023/03/22 06:27:33;;;;;;;8.60;2.70;;;;;;;;;;5074987;28;20047;-58
2023/03/22 06:29:59;;;;;;;9.80;2.92;;;;;;;;;;5071001;28;20055;-57
2023/03/22 06:32:26;;;;;;;9.23;3.45;;;;;;;;;;5070750;28;20040;-58
2023/03/22 06:34:55;;;;;;;5.20;2.20;;;;;;;;;;5070263;28;20497;-58
2023/03/22 06:37:22;;;;;;;7.97;2.92;;;;;;;;;;5073470;28;20045;-57
2023/03/22 06:39:50;;;;;;;9.13;3.22;;;;;;;;;;5075814;28;20048;-57
2023/03/22 06:42:16;;;;;;;5.88;4.28;;;;;;;;;;5066518;28;20052;-57
2023/03/22 06:44:43;;;;;;;5.80;2.05;;;;;;;;;;5071289;28;20043;-58
2023/03/22 06:47:09;;;;;;;14.10;3.08;;;;;;;;;;5071856;28;20113;-58
2023/03/22 06:49:36;;;;;;;7.68;2.60;;;;;;;;;;5073162;28;21104;-57
2023/03/22 06:52:02;;;;;;;9.93;3.00;;;;;;;;;;5072146;28;20033;-58
2023/03/22 06:54:28;;;;;;;8.43;2.45;;;;;;;;;;5072655;28;20044;-57
2023/03/22 06:56:54;;;;;;;11.45;3.33;;;;;;;;;;5073415;28;20041;-57
2023/03/22 06:59:20;;;;;;;10.35;3.97;;;;;;;;;;5046189;28;20090;-57
2023/03/22 07:01:47;;;;;;;7.90;3.05;;;;;;;;;;5074037;28;20432;-57
2023/03/22 07:04:13;;;;;;;7.00;3.20;;;;;;;;;;5074025;28;20043;-57
2023/03/22 07:06:39;;;;;;;8.02;2.47;;;;;;;;;;5075029;28;20075;-58
2023/03/22 07:09:05;;;;;;;10.85;3.50;;;;;;;;;;5070596;28;20045;-58
2023/03/22 07:11:31;;;;;;;8.55;2.80;;;;;;;;;;5072977;28;20053;-58
2023/03/22 07:13:58;;;;;;;10.30;2.33;;;;;;;;;;5072915;28;20053;-58
2023/03/22 07:16:24;;;;;;;11.30;3.08;;;;;;;;;;5073781;28;20037;-57
2023/03/22 07:18:50;;;;;;;10.90;2.80;;;;;;;;;;5069499;28;20167;-57
2023/03/22 07:21:16;;;;;;;5.80;2.50;;;;;;;;;;5069510;28;20082;-57
2023/03/22 07:23:42;;;;;;;5.57;2.22;;;;;;;;;;5069502;28;20194;-57
2023/03/22 07:26:08;;;;;;;12.57;2.92;;;;;;;;;;5070331;28;20070;-57
2023/03/22 07:28:34;;;;;;;8.50;2.80;;;;;;;;;;5071544;28;20052;-58
2023/03/22 07:31:05;;;;;;;8.90;4.55;;;;;;;;;;5070544;28;20123;-58
2023/03/22 07:33:31;;;;;;;11.98;3.72;;;;;;;;;;5065846;28;20067;-58
2023/03/22 07:35:57;;;;;;;4.13;2.42;;;;;;;;;;5050778;28;20070;-58
2023/03/22 07:38:23;;;;;;;11.70;2.83;;;;;;;;;;5071069;28;20040;-58
2023/03/22 07:40:53;;;;;;;8.02;3.53;;;;;;;;;;5072473;28;20047;-58
2023/03/22 07:43:19;;;;;;;8.82;2.30;;;;;;;;;;5072617;28;20071;-58
2023/03/22 07:45:45;;;;;;;8.82;2.55;;;;;;;;;;5074778;28;20091;-57
2023/03/22 07:48:11;;;;;;;5.78;2.13;;;;;;;;;;5055153;28;20048;-58
2023/03/22 07:50:37;;;;;;;7.80;2.47;;;;;;;;;;5075889;28;20298;-58
2023/03/22 07:53:04;;;;;;;19.40;4.43;;;;;;;;;;5048706;28;20098;-57
2023/03/22 07:55:30;;;;;;;5.25;2.50;;;;;;;;;;5075647;28;20621;-58
2023/03/22 07:57:59;;;;;;;7.38;1.92;;;;;;;;;;5076336;28;20049;-58
2023/03/22 08:00:25;;;;;;;5.88;2.10;;;;;;;;;;5075207;28;20178;-58
2023/03/22 08:02:51;;;;;;;5.57;2.40;;;;;;;;;;5048769;28;20553;-58
2023/03/22 08:05:33;;;;;;;6.38;2.15;;;;;;;;;;5076141;28;20044;-57
2023/03/22 08:08:12;;;;;;;6.53;2.28;;;;;;;;;;5074816;28;20041;-57
2023/03/22 08:10:38;;;;;;;8.95;2.83;;;;;;;;;;5074943;28;20151;-57
2023/03/22 08:13:04;;;;;;;5.50;2.35;;;;;;;;;;5074347;28;20410;-58
2023/03/22 08:15:30;;;;;;;6.65;2.67;;;;;;;;;;5075097;28;20087;-57
2023/03/22 08:17:57;;;;;;;5.10;2.65;;;;;;;;;;5073684;28;20045;-57
2023/03/22 08:20:27;;;;;;;12.77;3.35;;;;;;;;;;5074729;28;20098;-57
2023/03/22 08:22:53;;;;;;;6.72;2.83;;;;;;;;;;5074726;28;20358;-56
2023/03/22 08:25:20;;;;;;;10.20;2.38;;;;;;;;;;5074823;28;20041;-57
2023/03/22 08:27:46;;;;;;;13.23;3.80;;;;;;;;;;5074318;28;20047;-57
2023/03/22 08:30:12;;;;;;;9.55;3.25;;;;;;;;;;5074043;28;20518;-56
2023/03/22 08:32:39;;;;;;;11.30;3.35;;;;;;;;;;5073499;28;20920;-57
2023/03/22 08:35:05;;;;;;;7.22;2.88;;;;;;;;;;5074587;28;20206;-57
2023/03/22 08:37:31;;;;;;;9.25;4.35;;;;;;;;;;5048376;28;20068;-56
2023/03/22 08:39:58;;;;;;;9.38;4.20;;;;;;;;;;5074211;28;20187;-57
2023/03/22 08:42:24;;;;;;;13.77;2.50;;;;;;;;;;5074273;28;20186;-57
2023/03/22 08:44:51;;;;;;;9.07;2.88;;;;;;;;;;5074127;28;20529;-56
2023/03/22 08:47:17;;;;;;;3.60;2.33;;;;;;;;;;5073265;28;20083;-57
2023/03/22 08:49:43;;;;;;;12.57;3.38;;;;;;;;;;5074273;28;20044;-56
2023/03/22 08:52:10;;;;;;;9.10;3.90;;;;;;;;;;5048274;28;20047;-57
2023/03/22 08:54:37;;;;;;;7.93;3.17;;;;;;;;;;5048505;28;20052;-57
2023/03/22 08:57:03;;;;;;;9.68;2.97;;;;;;;;;;5074348;28;20040;-57
2023/03/22 08:59:29;;;;;;;10.77;3.60;;;;;;;;;;5074956;28;20043;-56
2023/03/22 09:01:55;;;;;;;6.95;3.22;;;;;;;;;;5072767;28;20047;-57
2023/03/22 09:04:21;;;;;;;7.75;3.17;;;;;;;;;;5074529;28;20518;-57
2023/03/22 09:06:47;;;;;;;9.35;3.60;;;;;;;;;;5073154;28;20388;-57
2023/03/22 09:09:13;;;;;;;8.15;2.63;;;;;;;;;;5073083;28;20045;-57
2023/03/22 09:11:41;;;;;;;9.10;2.55;;;;;;;;;;5074402;28;20048;-57
2023/03/22 09:14:07;;;;;;;6.40;2.97;;;;;;;;;;5074725;28;20037;-57
2023/03/22 09:16:33;;;;;;;11.98;3.20;;;;;;;;;;5072566;28;20140;-57
2023/03/22 09:19:01;;;;;;;5.88;2.15;;;;;;;;;;5073204;28;20044;-57
2023/03/22 09:21:28;;;;;;;6.55;2.70;;;;;;;;;;5073899;28;20044;-56
2023/03/22 09:23:55;;;;;;;4.53;2.15;;;;;;;;;;5074021;28;20132;-57
2023/03/22 09:26:22;;;;;;;12.02;2.80;;;;;;;;;;5073706;28;20044;-57
2023/03/22 09:28:48;;;;;;;5.95;3.05;;;;;;;;;;5073977;28;20066;-56
2023/03/22 09:31:15;;;;;;;6.35;2.67;;;;;;;;;;5073523;28;20191;-57
2023/03/22 09:33:41;;;;;;;8.43;2.35;;;;;;;;;;5073499;28;20124;-57
2023/03/22 09:36:08;;;;;;;8.10;3.08;;;;;;;;;;5074372;28;20044;-56
2023/03/22 09:38:35;;;;;;;6.57;3.03;;;;;;;;;;5071553;28;20122;-57
2023/03/22 09:41:06;;;;;;;6.72;2.85;;;;;;;;;;5073774;28;20036;-57
2023/03/22 09:43:51;;;;;;;6.70;3.20;;;;;;;;;;5074165;28;20110;-58
2023/03/22 09:46:29;;;;;;;8.38;4.25;;;;;;;;;;5068957;28;20052;-57
2023/03/22 09:48:56;;;;;;;9.68;2.30;;;;;;;;;;5068025;28;20045;-56
2023/03/22 09:51:25;;;;;;;6.10;2.67;;;;;;;;;;5061231;28;20048;-57
2023/03/22 09:53:52;;;;;;;8.23;2.80;;;;;;;;;;5061544;28;20070;-58
2023/03/22 09:56:23;;;;;;;10.07;2.95;;;;;;;;;;5062448;28;20047;-57
2023/03/22 09:58:56;;;;;;;6.60;2.75;;;;;;;;;;5062704;28;21113;-58
2023/03/22 10:01:33;;;;;;;6.40;2.40;;;;;;;;;;5047038;28;20138;-57
2023/03/22 10:04:15;;;;;;;7.18;4.35;;;;;;;;;;5057554;28;20068;-57
2023/03/22 10:06:45;;;;;;;11.23;3.10;;;;;;;;;;5060377;28;20044;-57
2023/03/22 10:09:25;;;;;;;9.55;3.53;;;;;;;;;;5056998;28;20036;-57
2023/03/22 10:11:54;;;;;;;7.13;2.45;;;;;;;;;;5059776;28;20110;-57
2023/03/22 10:14:27;;;;;;;8.82;2.42;;;;;;;;;;5058723;28;20040;-57
2023/03/22 10:16:54;;;;;;;6.82;3.20;;;;;;;;;;5038627;28;20040;-57
2023/03/22 10:19:26;;;;;;;6.20;2.53;;;;;;;;;;5059034;28;20048;-57
2023/03/22 10:21:54;;;;;;;6.15;2.42;;;;;;;;;;5060182;28;20079;-58
2023/03/22 10:24:23;;;;;;;8.48;3.65;;;;;;;;;;5064325;28;20526;-57
2023/03/22 10:26:50;;;;;;;9.98;3.45;;;;;;;;;;5071389;28;20110;-57
2023/03/22 10:29:26;;;;;;;5.80;2.60;;;;;;;;;;5073584;28;20048;-57
2023/03/22 10:31:53;;;;;;;13.25;3.40;;;;;;;;;;5071470;28;20141;-57
2023/03/22 10:34:21;;;;;;;7.72;3.10;;;;;;;;;;5071051;28;20052;-57
2023/03/22 10:36:49;;;;;;;9.40;3.63;;;;;;;;;;5073523;28;20155;-57
2023/03/22 10:39:27;;;;;;;8.98;3.25;;;;;;;;;;5071320;28;20041;-57
2023/03/22 10:41:54;;;;;;;9.90;2.58;;;;;;;;;;5072563;28;20040;-58
2023/03/22 10:44:21;;;;;;;14.20;4.28;;;;;;;;;;5072602;28;20048;-57
2023/03/22 10:46:48;;;;;;;8.15;2.45;;;;;;;;;;5072836;28;20045;-57
2023/03/22 10:49:34;;;;;;;4.32;2.10;;;;;;;;;;5074428;28;20249;-58
2023/03/22 10:52:19;;;;;;;7.68;2.63;;;;;;;;;;5076153;28;20028;-57
2023/03/22 10:54:45;;;;;;;8.25;2.20;;;;;;;;;;5076697;28;20051;-57
2023/03/22 10:57:11;;;;;;;9.10;2.83;;;;;;;;;;5075950;28;20920;-57
2023/03/22 10:59:42;;;;;;;10.05;2.95;;;;;;;;;;5075220;28;20041;-57
2023/03/22 11:02:26;;;;;;;6.05;2.53;;;;;;;;;;5075558;28;20086;-57
2023/03/22 11:04:53;;;;;;;4.43;1.92;;;;;;;;;;5077672;28;20083;-57
2023/03/22 11:07:36;;;;;;;5.50;2.33;;;;;;;;;;5074598;28;20115;-57
2023/03/22 11:10:08;;;;;;;13.55;4.10;;;;;;;;;;5050874;28;20076;-57
2023/03/22 11:12:43;;;;;;;3.65;1.50;;;;;;;;;;5074982;28;20052;-57
2023/03/22 11:15:24;;;;;;;6.78;2.97;;;;;;;;;;5076783;28;20170;-57
2023/03/22 11:17:50;;;;;;;6.20;2.13;;;;;;;;;;5074789;28;20044;-57
2023/03/22 11:20:19;;;;;;;8.02;2.15;;;;;;;;;;5075781;28;20044;-57
2023/03/22 11:22:46;;;;;;;4.93;2.42;;;;;;;;;;5075848;28;20551;-57
2023/03/22 11:25:33;;;;;;;5.78;2.53;;;;;;;;;;5073137;28;20083;-58
2023/03/22 11:28:08;;;;;;;7.32;2.45;;;;;;;;;;5075921;28;20041;-57
2023/03/22 11:30:34;;;;;;;6.13;2.15;;;;;;;;;;5075483;28;20040;-57
2023/03/22 11:33:17;;;;;;;9.45;2.42;;;;;;;;;;5075489;28;20471;-57
2023/03/22 11:35:45;;;;;;;7.15;2.58;;;;;;;;;;5076183;28;20126;-57
2023/03/22 11:38:24;;;;;;;9.73;3.70;;;;;;;;;;5076662;28;20518;-58
2023/03/22 11:40:55;;;;;;;9.00;2.97;;;;;;;;;;5076103;28;20047;-57
2023/03/22 11:43:23;;;;;;;13.30;5.43;;;;;;;;;;5076667;28;20521;-57
2023/03/22 11:45:52;;;;;;;4.78;1.70;;;;;;;;;;5057601;28;20048;-57
2023/03/22 11:48:21;;;;;;;8.82;3.03;;;;;;;;;;5075639;28;20118;-58
2023/03/22 11:50:47;;;;;;;6.30;2.80;;;;;;;;;;5076042;28;20041;-57
2023/03/22 11:53:18;;;;;;;11.93;3.33;;;;;;;;;;5076499;28;20044;-57
2023/03/22 11:55:45;;;;;;;8.85;3.58;;;;;;;;;;5056599;28;20488;-57
2023/03/22 11:58:22;;;;;;;6.15;2.42;;;;;;;;;;5072513;28;20122;-57
2023/03/22 12:00:51;;;;;;;6.20;2.75;;;;;;;;;;5074865;28;20041;-57
2023/03/22 12:03:19;;;;;;;3.30;1.98;;;;;;;;;;5074313;28;20669;-58
2023/03/22 12:05:47;;;;;;;6.13;2.22;;;;;;;;;;5075582;28;20040;-57
2023/03/22 12:08:16;;;;;;;5.03;1.80;;;;;;;;;;5076356;28;20475;-57
2023/03/22 12:10:46;;;;;;;7.78;2.22;;;;;;;;;;5074735;28;20098;-58
2023/03/22 12:13:18;;;;;;;6.50;1.90;;;;;;;;;;4749384;28;20514;-58
2023/03/22 12:15:48;;;;;;;10.10;2.40;;;;;;;;;;4554864;28;21704;-58
2023/03/22 12:18:22;;;;;;;5.95;2.15;;;;;;;;;;4890723;28;20056;-58
2023/03/22 12:20:48;;;;;;;4.30;2.58;;;;;;;;;;5054470;28;20452;-58
2023/03/22 12:23:15;;;;;;;11.10;3.05;;;;;;;;;;5053924;28;20045;-58
2023/03/22 12:25:43;;;;;;;7.45;2.33;;;;;;;;;;5053935;28;20573;-58
2023/03/22 12:28:12;;;;;;;14.35;2.42;;;;;;;;;;5055500;28;20049;-58
2023/03/22 12:30:41;;;;;;;4.60;2.20;;;;;;;;;;5054061;28;20424;-58
2023/03/22 12:33:15;;;;;;;8.70;2.33;;;;;;;;;;5050769;28;20041;-58
2023/03/22 12:35:43;;;;;;;8.43;2.85;;;;;;;;;;5054386;28;20044;-58
2023/03/22 12:38:15;;;;;;;7.25;2.63;;;;;;;;;;5053390;28;20040;-58
2023/03/22 12:40:42;;;;;;;6.25;3.83;;;;;;;;;;5054723;28;20045;-58
2023/03/22 12:43:14;;;;;;;6.35;2.00;;;;;;;;;;5053748;28;20549;-58
2023/03/22 12:45:47;;;;;;;8.48;2.88;;;;;;;;;;5054710;28;20084;-57
2023/03/22 12:48:40;;;;;;;5.90;3.10;;;;;;;;;;5050574;28;20052;-58
2023/03/22 12:51:07;;;;;;;6.85;2.70;;;;;;;;;;5040429;28;20045;-58
2023/03/22 12:53:41;;;;;;;4.05;2.50;;;;;;;;;;5053834;28;20633;-58
2023/03/22 12:56:08;;;;;;;4.97;2.45;;;;;;;;;;5052950;28;20076;-58
2023/03/22 12:58:35;;;;;;;10.32;2.42;;;;;;;;;;5054568;28;20064;-59
2023/03/22 13:01:12;;;;;;;3.35;2.05;;;;;;;;;;5052832;28;20056;-58
2023/03/22 13:03:40;;;;;;;3.70;2.15;;;;;;;;;;5051867;28;20138;-58
2023/03/22 13:06:26;;;;;;;3.92;1.63;;;;;;;;;;5053101;28;20041;-58
2023/03/22 13:09:15;;;;;;;5.70;2.33;;;;;;;;;;5053592;28;20132;-58
2023/03/22 13:11:45;;;;;;;7.10;2.63;;;;;;;;;;5053149;28;20877;-58
2023/03/22 13:14:13;;;;;;;7.85;2.17;;;;;;;;;;5054597;28;20478;-58
2023/03/22 13:16:50;;;;;;;4.88;2.10;;;;;;;;;;5041298;28;20045;-58
2023/03/22 13:19:25;;;;;;;4.32;2.42;;;;;;;;;;4540193;28;20650;-58
2023/03/22 13:22:11;;;;;;;6.68;1.65;;;;;;;;;;5015307;28;20056;-58
2023/03/22 13:24:57;;;;;;;5.63;1.95;;;;;;;;;;5074086;28;20538;-58
2023/03/22 13:27:23;;;;;;;4.95;1.80;;;;;;;;;;5073382;28;20090;-58
2023/03/22 13:29:52;;;;;;;6.70;2.33;;;;;;;;;;5072165;28;20048;-58
2023/03/22 13:32:29;;;;;;;3.97;1.75;;;;;;;;;;5074037;28;20041;-58
2023/03/22 13:34:55;;;;;;;6.30;2.92;;;;;;;;;;5074149;28;20225;-58
2023/03/22 13:37:30;;;;;;;5.60;2.50;;;;;;;;;;5073624;28;20040;-59
2023/03/22 13:40:00;;;;;;;3.80;2.53;;;;;;;;;;5074029;28;20155;-58
2023/03/22 13:42:37;;;;;;;6.32;1.90;;;;;;;;;;5073226;28;20526;-57
2023/03/22 13:45:07;;;;;;;4.80;2.35;;;;;;;;;;5074165;28;20043;-58
2023/03/22 13:47:44;;;;;;;6.50;2.65;;;;;;;;;;5071779;28;20032;-58
2023/03/22 13:50:16;;;;;;;5.03;2.33;;;;;;;;;;5074536;28;20552;-58
2023/03/22 13:52:46;;;;;;;6.60;2.58;;;;;;;;;;5072564;28;20541;-58
2023/03/22 13:55:40;;;;;;;5.85;3.03;;;;;;;;;;5074418;28;20043;-58
2023/03/22 13:58:09;;;;;;;8.73;2.10;;;;;;;;;;5073232;28;20044;-58
2023/03/22 14:00:38;;;;;;;8.70;3.97;;;;;;;;;;5069703;28;20052;-58
2023/03/22 14:03:15;;;;;;;6.57;2.90;;;;;;;;;;5072678;28;20051;-58
2023/03/22 14:05:44;;;;;;;5.40;2.50;;;;;;;;;;5073179;28;20040;-58
2023/03/22 14:08:18;;;;;;;6.82;2.15;;;;;;;;;;5074039;28;20040;-58
2023/03/22 14:10:54;;;;;;;6.45;3.75;;;;;;;;;;5072402;28;20053;-58
2023/03/22 14:13:41;;;;;;;3.47;2.08;;;;;;;;;;5073583;28;20115;-58
2023/03/22 14:16:22;;;;;;;4.07;2.20;;;;;;;;;;5073055;28;20545;-58
2023/03/22 14:18:49;;;;;;;5.63;1.80;;;;;;;;;;5069920;28;20043;-58
2023/03/22 14:21:21;;;;;;;4.32;1.80;;;;;;;;;;4709942;28;20589;-58
2023/03/22 14:23:46;;;;;;;;;;;;;;;;;;4550874;28;20564;-58
2023/03/22 14:26:19;;;;;;;6.25;2.28;;;;;;;;;;4561975;28;20604;-58
2023/03/22 14:28:45;;;;;;;7.07;2.25;;;;;;;;;;4550314;28;20494;-58
2023/03/22 14:31:28;;;;;;;5.55;2.80;;;;;;;;;;4552540;28;21657;-59
2023/03/22 14:33:55;;;;;;;5.28;2.83;;;;;;;;;;4551925;28;21810;-58
2023/03/22 14:36:22;;;;;;;3.85;2.05;;;;;;;;;;4554153;28;21577;-58
2023/03/22 14:38:50;;;;;;;4.60;2.42;;;;;;;;;;4553437;28;20508;-58
2023/03/22 14:41:23;;;;;;;5.63;1.52;;;;;;;;;;4555375;28;21663;-59
2023/03/22 14:43:50;;;;;;;3.33;2.13;;;;;;;;;;4559203;28;20476;-58
2023/03/22 14:46:21;;;;;;;4.38;2.00;;;;;;;;;;4561477;28;21358;-58
2023/03/22 14:48:52;;;;;;;5.80;2.10;;;;;;;;;;4562121;28;21210;-58
2023/03/22 14:51:20;;;;;;;5.57;2.95;;;;;;;;;;4559425;28;20995;-58
2023/03/22 14:53:47;;;;;;;4.70;2.05;;;;;;;;;;4558245;28;21889;-58